sensor_id;sensor_type;location;lat;lon;timestamp;temperature;humidity
22194;DHT22;11262;50.308;9.270;2022-09-02T00:01:02;16.10;99.90
22194;DHT22;11262;50.308;9.270;2022-09-02T00:03:34;16.10;99.90
22194;DHT22;11262;50.308;9.270;2022-09-02T00:06:01;16.10;99.90
22194;DHT22;11262;50.308;9.270;2022-09-02T00:08:28;16.10;99.90
22194;DHT22;11262;50.308;9.270;2022-09-02T00:10:57;16.20;99.90
22194;DHT22;11262;50.308;9.270;2022-09-02T00:13:25;16.10;99.90
22194;DHT22;11262;50.308;9.270;2022-09-02T00:15:51;16.10;99.90
22194;DHT22;11262;50.308;9.270;2022-09-02T00:18:17;16.10;99.90
22194;DHT22;11262;50.308;9.270;2022-09-02T00:20:46;16.20;99.90
22194;DHT22;11262;50.308;9.270;2022-09-02T00:23:12;16.20;99.90
22194;DHT22;11262;50.308;9.270;2022-09-02T00:25:38;16.20;99.90
22194;DHT22;11262;50.308;9.270;2022-09-02T00:28:06;16.20;99.90
22194;DHT22;11262;50.308;9.270;2022-09-02T00:30:32;16.20;99.90
22194;DHT22;11262;50.308;9.270;2022-09-02T00:32:58;16.20;99.90
22194;DHT22;11262;50.308;9.270;2022-09-02T00:35:24;16.20;99.90
22194;DHT22;11262;50.308;9.270;2022-09-02T00:37:50;16.10;99.90
22194;DHT22;11262;50.308;9.270;2022-09-02T00:40:16;16.10;99.90
22194;DHT22;11262;50.308;9.270;2022-09-02T00:42:42;16.10;99.90
22194;DHT22;11262;50.308;9.270;2022-09-02T00:45:08;16.10;99.90
22194;DHT22;11262;50.308;9.270;2022-09-02T00:47:35;16.10;99.90
22194;DHT22;11262;50.308;9.270;2022-09-02T00:50:08;16.10;99.90
22194;DHT22;11262;50.308;9.270;2022-09-02T00:52:51;16.00;99.90
22194;DHT22;11262;50.308;9.270;2022-09-02T00:55:38;16.00;99.90
22194;DHT22;11262;50.308;9.270;2022-09-02T00:58:09;15.90;99.90
22194;DHT22;11262;50.308;9.270;2022-09-02T01:00:40;15.80;99.90
22194;DHT22;11262;50.308;9.270;2022-09-02T01:03:10;15.80;99.90
22194;DHT22;11262;50.308;9.270;2022-09-02T01:05:40;15.80;99.90
22194;DHT22;11262;50.308;9.270;2022-09-02T01:08:15;15.70;99.90
22194;DHT22;11262;50.308;9.270;2022-09-02T01:10:42;15.70;99.90
22194;DHT22;11262;50.308;9.270;2022-09-02T01:13:12;15.60;99.90
22194;DHT22;11262;50.308;9.270;2022-09-02T01:15:44;15.60;99.90
22194;DHT22;11262;50.308;9.270;2022-09-02T01:18:15;15.60;99.90
22194;DHT22;11262;50.308;9.270;2022-09-02T01:20:42;15.60;99.90
22194;DHT22;11262;50.308;9.270;2022-09-02T01:23:08;15.50;99.90
22194;DHT22;11262;50.308;9.270;2022-09-02T01:25:33;15.40;99.90
22194;DHT22;11262;50.308;9.270;2022-09-02T01:28:07;15.40;99.90
22194;DHT22;11262;50.308;9.270;2022-09-02T01:30:34;15.40;99.90
22194;DHT22;11262;50.308;9.270;2022-09-02T01:33:01;15.40;99.90
22194;DHT22;11262;50.308;9.270;2022-09-02T01:35:27;15.30;99.90
22194;DHT22;11262;50.308;9.270;2022-09-02T01:37:56;15.30;99.90
22194;DHT22;11262;50.308;9.270;2022-09-02T01:40:25;15.30;99.90
22194;DHT22;11262;50.308;9.270;2022-09-02T01:43:03;15.30;99.90
22194;DHT22;11262;50.308;9.270;2022-09-02T01:45:33;15.30;99.90
22194;DHT22;11262;50.308;9.270;2022-09-02T01:48:00;15.30;99.90
22194;DHT22;11262;50.308;9.270;2022-09-02T01:50:26;15.30;99.90
22194;DHT22;11262;50.308;9.270;2022-09-02T01:52:52;15.20;99.90
22194;DHT22;11262;50.308;9.270;2022-09-02T01:55:17;15.20;99.90
22194;DHT22;11262;50.308;9.270;2022-09-02T01:57:43;15.30;99.90
22194;DHT22;11262;50.308;9.270;2022-09-02T02:00:11;15.20;99.90
22194;DHT22;11262;50.308;9.270;2022-09-02T02:02:37;15.20;99.90
22194;DHT22;11262;50.308;9.270;2022-09-02T02:05:03;15.20;99.90
22194;DHT22;11262;50.308;9.270;2022-09-02T02:07:29;15.20;99.90
22194;DHT22;11262;50.308;9.270;2022-09-02T02:09:55;15.20;99.90
22194;DHT22;11262;50.308;9.270;2022-09-02T02:12:20;15.10;99.90
22194;DHT22;11262;50.308;9.270;2022-09-02T02:14:46;15.20;99.90
22194;DHT22;11262;50.308;9.270;2022-09-02T02:17:12;15.10;99.90
22194;DHT22;11262;50.308;9.270;2022-09-02T02:19:37;15.10;99.90
22194;DHT22;11262;50.308;9.270;2022-09-02T02:22:03;15.10;99.90
22194;DHT22;11262;50.308;9.270;2022-09-02T02:24:30;15.10;99.90
22194;DHT22;11262;50.308;9.270;2022-09-02T02:26:55;15.10;99.90
22194;DHT22;11262;50.308;9.270;2022-09-02T02:29:21;15.10;99.90
22194;DHT22;11262;50.308;9.270;2022-09-02T02:31:48;15.10;99.90
22194;DHT22;11262;50.308;9.270;2022-09-02T02:34:13;15.10;99.90
22194;DHT22;11262;50.308;9.270;2022-09-02T02:36:39;15.00;99.90
22194;DHT22;11262;50.308;9.270;2022-09-02T02:39:07;15.00;99.90
22194;DHT22;11262;50.308;9.270;2022-09-02T02:41:34;15.00;99.90
22194;DHT22;11262;50.308;9.270;2022-09-02T02:44:00;15.00;99.90
22194;DHT22;11262;50.308;9.270;2022-09-02T02:46:25;15.00;99.90
22194;DHT22;11262;50.308;9.270;2022-09-02T02:48:51;15.00;99.90
22194;DHT22;11262;50.308;9.270;2022-09-02T02:51:17;14.90;99.90
22194;DHT22;11262;50.308;9.270;2022-09-02T02:53:42;14.90;99.90
22194;DHT22;11262;50.308;9.270;2022-09-02T02:56:08;14.80;99.90
22194;DHT22;11262;50.308;9.270;2022-09-02T02:58:34;14.80;99.90
22194;DHT22;11262;50.308;9.270;2022-09-02T03:01:00;14.80;99.90
22194;DHT22;11262;50.308;9.270;2022-09-02T03:03:26;14.80;99.90
22194;DHT22;11262;50.308;9.270;2022-09-02T03:05:52;14.70;99.90
22194;DHT22;11262;50.308;9.270;2022-09-02T03:08:19;14.80;99.90
22194;DHT22;11262;50.308;9.270;2022-09-02T03:10:46;14.80;99.90
22194;DHT22;11262;50.308;9.270;2022-09-02T03:13:12;14.80;99.90
22194;DHT22;11262;50.308;9.270;2022-09-02T03:15:39;14.80;99.90
22194;DHT22;11262;50.308;9.270;2022-09-02T03:18:05;14.80;99.90
22194;DHT22;11262;50.308;9.270;2022-09-02T03:20:31;14.80;99.90
22194;DHT22;11262;50.308;9.270;2022-09-02T03:22:57;14.80;99.90
22194;DHT22;11262;50.308;9.270;2022-09-02T03:25:25;14.80;99.90
22194;DHT22;11262;50.308;9.270;2022-09-02T03:27:52;14.80;99.90
22194;DHT22;11262;50.308;9.270;2022-09-02T03:30:23;14.70;99.90
22194;DHT22;11262;50.308;9.270;2022-09-02T03:32:53;14.70;99.90
22194;DHT22;11262;50.308;9.270;2022-09-02T03:35:20;14.70;99.90
22194;DHT22;11262;50.308;9.270;2022-09-02T03:37:47;14.70;99.90
22194;DHT22;11262;50.308;9.270;2022-09-02T03:40:16;14.60;99.90
22194;DHT22;11262;50.308;9.270;2022-09-02T03:42:42;14.60;99.90
22194;DHT22;11262;50.308;9.270;2022-09-02T03:45:09;14.70;99.90
22194;DHT22;11262;50.308;9.270;2022-09-02T03:47:36;14.70;99.90
22194;DHT22;11262;50.308;9.270;2022-09-02T03:50:05;14.70;99.90
22194;DHT22;11262;50.308;9.270;2022-09-02T03:52:31;14.70;99.90
22194;DHT22;11262;50.308;9.270;2022-09-02T03:54:56;14.70;99.90
22194;DHT22;11262;50.308;9.270;2022-09-02T03:57:22;14.70;99.90
22194;DHT22;11262;50.308;9.270;2022-09-02T03:59:50;14.70;99.90
22194;DHT22;11262;50.308;9.270;2022-09-02T04:02:16;14.70;99.90
22194;DHT22;11262;50.308;9.270;2022-09-02T04:04:42;14.70;99.90
22194;DHT22;11262;50.308;9.270;2022-09-02T04:07:08;14.70;99.90
22194;DHT22;11262;50.308;9.270;2022-09-02T04:09:33;14.60;99.90
22194;DHT22;11262;50.308;9.270;2022-09-02T04:11:59;14.60;99.90
22194;DHT22;11262;50.308;9.270;2022-09-02T04:14:24;14.60;99.90
22194;DHT22;11262;50.308;9.270;2022-09-02T04:16:51;14.60;99.90
22194;DHT22;11262;50.308;9.270;2022-09-02T04:19:16;14.50;99.90
22194;DHT22;11262;50.308;9.270;2022-09-02T04:21:42;14.50;99.90
22194;DHT22;11262;50.308;9.270;2022-09-02T04:24:09;14.40;99.90
22194;DHT22;11262;50.308;9.270;2022-09-02T04:26:35;14.40;99.90
22194;DHT22;11262;50.308;9.270;2022-09-02T04:29:02;14.30;99.90
22194;DHT22;11262;50.308;9.270;2022-09-02T04:31:28;14.30;99.90
22194;DHT22;11262;50.308;9.270;2022-09-02T04:33:57;14.20;99.90
22194;DHT22;11262;50.308;9.270;2022-09-02T04:36:25;14.20;99.90
22194;DHT22;11262;50.308;9.270;2022-09-02T04:38:51;14.20;99.90
22194;DHT22;11262;50.308;9.270;2022-09-02T04:41:23;14.20;99.90
22194;DHT22;11262;50.308;9.270;2022-09-02T04:43:51;14.20;99.90
22194;DHT22;11262;50.308;9.270;2022-09-02T04:46:17;14.20;99.90
22194;DHT22;11262;50.308;9.270;2022-09-02T04:48:44;14.20;99.90
22194;DHT22;11262;50.308;9.270;2022-09-02T04:51:19;14.10;99.90
22194;DHT22;11262;50.308;9.270;2022-09-02T04:53:47;14.10;99.90
22194;DHT22;11262;50.308;9.270;2022-09-02T04:56:17;14.20;99.90
22194;DHT22;11262;50.308;9.270;2022-09-02T04:58:43;14.20;99.90
22194;DHT22;11262;50.308;9.270;2022-09-02T05:01:14;14.20;99.90
22194;DHT22;11262;50.308;9.270;2022-09-02T05:03:42;14.20;99.90
22194;DHT22;11262;50.308;9.270;2022-09-02T05:06:09;14.30;99.90
22194;DHT22;11262;50.308;9.270;2022-09-02T05:08:35;14.40;99.90
22194;DHT22;11262;50.308;9.270;2022-09-02T05:11:07;14.40;99.90
22194;DHT22;11262;50.308;9.270;2022-09-02T05:13:34;14.50;99.90
22194;DHT22;11262;50.308;9.270;2022-09-02T05:16:00;14.60;99.90
22194;DHT22;11262;50.308;9.270;2022-09-02T05:18:27;14.70;99.90
22194;DHT22;11262;50.308;9.270;2022-09-02T05:20:53;14.70;99.90
22194;DHT22;11262;50.308;9.270;2022-09-02T05:23:18;14.80;99.90
22194;DHT22;11262;50.308;9.270;2022-09-02T05:25:44;14.90;99.90
22194;DHT22;11262;50.308;9.270;2022-09-02T05:28:10;15.00;99.90
22194;DHT22;11262;50.308;9.270;2022-09-02T05:30:37;15.10;99.90
22194;DHT22;11262;50.308;9.270;2022-09-02T05:33:03;15.10;99.90
22194;DHT22;11262;50.308;9.270;2022-09-02T05:35:29;15.20;99.90
22194;DHT22;11262;50.308;9.270;2022-09-02T05:37:55;15.20;99.90
22194;DHT22;11262;50.308;9.270;2022-09-02T05:40:21;15.20;99.90
22194;DHT22;11262;50.308;9.270;2022-09-02T05:42:47;15.30;99.90
22194;DHT22;11262;50.308;9.270;2022-09-02T05:45:12;15.30;99.90
22194;DHT22;11262;50.308;9.270;2022-09-02T05:47:39;15.40;99.90
22194;DHT22;11262;50.308;9.270;2022-09-02T05:50:05;15.50;99.90
22194;DHT22;11262;50.308;9.270;2022-09-02T05:52:31;15.60;99.90
22194;DHT22;11262;50.308;9.270;2022-09-02T05:54:57;15.70;99.90
22194;DHT22;11262;50.308;9.270;2022-09-02T05:57:23;15.80;99.90
22194;DHT22;11262;50.308;9.270;2022-09-02T05:59:49;15.90;99.90
22194;DHT22;11262;50.308;9.270;2022-09-02T06:02:21;15.90;99.90
22194;DHT22;11262;50.308;9.270;2022-09-02T06:04:49;16.00;99.90
22194;DHT22;11262;50.308;9.270;2022-09-02T06:07:17;16.10;99.90
22194;DHT22;11262;50.308;9.270;2022-09-02T06:09:43;16.20;99.90
22194;DHT22;11262;50.308;9.270;2022-09-02T06:12:13;16.40;99.90
22194;DHT22;11262;50.308;9.270;2022-09-02T06:14:40;16.50;99.90
22194;DHT22;11262;50.308;9.270;2022-09-02T06:17:08;16.50;99.90
22194;DHT22;11262;50.308;9.270;2022-09-02T06:19:34;16.60;99.90
22194;DHT22;11262;50.308;9.270;2022-09-02T06:22:01;16.70;99.90
22194;DHT22;11262;50.308;9.270;2022-09-02T06:24:27;16.90;99.90
22194;DHT22;11262;50.308;9.270;2022-09-02T06:26:54;17.00;99.90
22194;DHT22;11262;50.308;9.270;2022-09-02T06:29:22;17.10;99.90
22194;DHT22;11262;50.308;9.270;2022-09-02T06:31:48;17.20;99.90
22194;DHT22;11262;50.308;9.270;2022-09-02T06:34:16;17.30;99.90
22194;DHT22;11262;50.308;9.270;2022-09-02T06:36:43;17.40;99.90
22194;DHT22;11262;50.308;9.270;2022-09-02T06:39:13;17.50;99.90
22194;DHT22;11262;50.308;9.270;2022-09-02T06:41:41;17.60;99.90
22194;DHT22;11262;50.308;9.270;2022-09-02T06:44:08;17.70;99.90
22194;DHT22;11262;50.308;9.270;2022-09-02T06:46:37;17.80;99.90
22194;DHT22;11262;50.308;9.270;2022-09-02T06:49:04;17.90;99.90
22194;DHT22;11262;50.308;9.270;2022-09-02T06:51:34;18.00;99.90
22194;DHT22;11262;50.308;9.270;2022-09-02T06:54:01;18.00;99.90
22194;DHT22;11262;50.308;9.270;2022-09-02T06:56:27;18.20;99.90
22194;DHT22;11262;50.308;9.270;2022-09-02T06:58:54;18.20;99.90
22194;DHT22;11262;50.308;9.270;2022-09-02T07:01:22;18.20;99.90
22194;DHT22;11262;50.308;9.270;2022-09-02T07:03:48;18.30;99.90
22194;DHT22;11262;50.308;9.270;2022-09-02T07:06:39;18.30;99.90
22194;DHT22;11262;50.308;9.270;2022-09-02T07:09:06;18.40;99.90
22194;DHT22;11262;50.308;9.270;2022-09-02T07:11:32;18.50;99.90
22194;DHT22;11262;50.308;9.270;2022-09-02T07:13:58;18.60;99.90
22194;DHT22;11262;50.308;9.270;2022-09-02T07:16:28;18.60;99.90
22194;DHT22;11262;50.308;9.270;2022-09-02T07:18:54;18.80;99.90
22194;DHT22;11262;50.308;9.270;2022-09-02T07:21:20;18.70;99.90
22194;DHT22;11262;50.308;9.270;2022-09-02T07:23:45;18.70;99.90
22194;DHT22;11262;50.308;9.270;2022-09-02T07:26:15;18.80;99.90
22194;DHT22;11262;50.308;9.270;2022-09-02T07:28:42;18.80;99.90
22194;DHT22;11262;50.308;9.270;2022-09-02T07:31:09;18.80;99.90
22194;DHT22;11262;50.308;9.270;2022-09-02T07:33:35;18.90;99.90
22194;DHT22;11262;50.308;9.270;2022-09-02T07:36:05;19.00;99.90
22194;DHT22;11262;50.308;9.270;2022-09-02T07:38:32;19.00;99.90
22194;DHT22;11262;50.308;9.270;2022-09-02T07:40:58;19.20;99.90
22194;DHT22;11262;50.308;9.270;2022-09-02T07:43:26;19.30;99.90
22194;DHT22;11262;50.308;9.270;2022-09-02T07:45:52;19.40;99.90
22194;DHT22;11262;50.308;9.270;2022-09-02T07:48:21;19.50;99.90
22194;DHT22;11262;50.308;9.270;2022-09-02T07:50:47;19.60;99.90
22194;DHT22;11262;50.308;9.270;2022-09-02T07:53:13;19.80;99.90
22194;DHT22;11262;50.308;9.270;2022-09-02T07:55:41;19.90;99.90
22194;DHT22;11262;50.308;9.270;2022-09-02T07:58:07;20.00;99.90
22194;DHT22;11262;50.308;9.270;2022-09-02T08:00:33;20.00;99.90
22194;DHT22;11262;50.308;9.270;2022-09-02T08:02:59;20.00;99.90
22194;DHT22;11262;50.308;9.270;2022-09-02T08:05:26;20.10;99.90
22194;DHT22;11262;50.308;9.270;2022-09-02T08:07:52;20.10;99.90
22194;DHT22;11262;50.308;9.270;2022-09-02T08:10:18;20.20;99.90
22194;DHT22;11262;50.308;9.270;2022-09-02T08:12:45;20.20;99.90
22194;DHT22;11262;50.308;9.270;2022-09-02T08:15:12;20.40;99.90
22194;DHT22;11262;50.308;9.270;2022-09-02T08:17:38;20.40;99.10
22194;DHT22;11262;50.308;9.270;2022-09-02T08:20:10;20.50;98.90
22194;DHT22;11262;50.308;9.270;2022-09-02T08:22:37;20.70;98.60
22194;DHT22;11262;50.308;9.270;2022-09-02T08:25:03;20.80;98.60
22194;DHT22;11262;50.308;9.270;2022-09-02T08:27:29;20.80;97.60
22194;DHT22;11262;50.308;9.270;2022-09-02T08:29:56;20.90;98.60
22194;DHT22;11262;50.308;9.270;2022-09-02T08:32:23;21.00;98.50
22194;DHT22;11262;50.308;9.270;2022-09-02T08:34:49;21.10;97.50
22194;DHT22;11262;50.308;9.270;2022-09-02T08:37:15;21.20;97.50
22194;DHT22;11262;50.308;9.270;2022-09-02T08:39:44;21.20;97.10
22194;DHT22;11262;50.308;9.270;2022-09-02T08:42:34;21.30;97.30
22194;DHT22;11262;50.308;9.270;2022-09-02T08:45:20;21.50;96.50
22194;DHT22;11262;50.308;9.270;2022-09-02T08:47:49;21.50;96.10
22194;DHT22;11262;50.308;9.270;2022-09-02T08:50:18;21.80;96.20
22194;DHT22;11262;50.308;9.270;2022-09-02T08:55:46;21.80;95.60
22194;DHT22;11262;50.308;9.270;2022-09-02T08:58:17;22.00;94.90
22194;DHT22;11262;50.308;9.270;2022-09-02T09:00:45;22.20;95.20
22194;DHT22;11262;50.308;9.270;2022-09-02T09:03:28;22.20;94.50
22194;DHT22;11262;50.308;9.270;2022-09-02T09:06:37;22.30;94.30
22194;DHT22;11262;50.308;9.270;2022-09-02T09:09:24;22.20;94.10
22194;DHT22;11262;50.308;9.270;2022-09-02T09:12:09;22.10;93.70
22194;DHT22;11262;50.308;9.270;2022-09-02T09:17:28;22.30;92.80
22194;DHT22;11262;50.308;9.270;2022-09-02T09:19:59;22.40;92.80
22194;DHT22;11262;50.308;9.270;2022-09-02T09:22:30;22.60;92.40
22194;DHT22;11262;50.308;9.270;2022-09-02T09:24:57;22.70;92.10
22194;DHT22;11262;50.308;9.270;2022-09-02T09:27:23;22.90;91.10
22194;DHT22;11262;50.308;9.270;2022-09-02T09:29:50;23.00;91.20
22194;DHT22;11262;50.308;9.270;2022-09-02T09:32:26;23.10;90.10
22194;DHT22;11262;50.308;9.270;2022-09-02T09:37:40;23.30;89.00
22194;DHT22;11262;50.308;9.270;2022-09-02T09:43:10;23.30;86.30
22194;DHT22;11262;50.308;9.270;2022-09-02T09:45:42;23.30;86.50
22194;DHT22;11262;50.308;9.270;2022-09-02T09:53:29;23.60;82.40
22194;DHT22;11262;50.308;9.270;2022-09-02T09:56:02;23.80;80.70
22194;DHT22;11262;50.308;9.270;2022-09-02T10:01:29;23.40;81.90
22194;DHT22;11262;50.308;9.270;2022-09-02T10:03:58;23.80;83.40
22194;DHT22;11262;50.308;9.270;2022-09-02T10:09:03;24.50;79.70
22194;DHT22;11262;50.308;9.270;2022-09-02T10:11:32;24.70;78.60
22194;DHT22;11262;50.308;9.270;2022-09-02T10:14:04;24.40;75.30
22194;DHT22;11262;50.308;9.270;2022-09-02T10:27:38;24.30;76.70
22194;DHT22;11262;50.308;9.270;2022-09-02T10:30:10;24.20;73.30
22194;DHT22;11262;50.308;9.270;2022-09-02T10:35:38;24.80;72.20
22194;DHT22;11262;50.308;9.270;2022-09-02T10:44:20;25.60;65.90
22194;DHT22;11262;50.308;9.270;2022-09-02T10:57:58;25.80;61.70
22194;DHT22;11262;50.308;9.270;2022-09-02T11:00:25;26.00;62.30
22194;DHT22;11262;50.308;9.270;2022-09-02T11:03:12;26.00;61.30
22194;DHT22;11262;50.308;9.270;2022-09-02T11:13:27;26.20;62.20
22194;DHT22;11262;50.308;9.270;2022-09-02T11:16:04;26.50;62.10
22194;DHT22;11262;50.308;9.270;2022-09-02T11:18:44;26.20;60.70
22194;DHT22;11262;50.308;9.270;2022-09-02T11:21:29;26.00;60.10
22194;DHT22;11262;50.308;9.270;2022-09-02T11:24:14;25.80;60.30
22194;DHT22;11262;50.308;9.270;2022-09-02T11:26:52;25.50;60.40
22194;DHT22;11262;50.308;9.270;2022-09-02T11:32:25;25.60;60.70
22194;DHT22;11262;50.308;9.270;2022-09-02T11:34:55;25.60;61.90
22194;DHT22;11262;50.308;9.270;2022-09-02T11:37:50;25.70;62.40
22194;DHT22;11262;50.308;9.270;2022-09-02T11:40:30;25.70;61.30
22194;DHT22;11262;50.308;9.270;2022-09-02T11:43:02;25.40;62.00
22194;DHT22;11262;50.308;9.270;2022-09-02T11:53:44;25.90;62.10
22194;DHT22;11262;50.308;9.270;2022-09-02T11:56:12;26.20;60.00
22194;DHT22;11262;50.308;9.270;2022-09-02T11:58:43;26.00;60.00
22194;DHT22;11262;50.308;9.270;2022-09-02T12:04:05;25.60;60.70
22194;DHT22;11262;50.308;9.270;2022-09-02T12:06:31;25.60;61.80
22194;DHT22;11262;50.308;9.270;2022-09-02T12:09:00;26.20;61.70
22194;DHT22;11262;50.308;9.270;2022-09-02T12:19:30;26.20;61.00
22194;DHT22;11262;50.308;9.270;2022-09-02T12:24:55;25.60;61.40
22194;DHT22;11262;50.308;9.270;2022-09-02T12:27:35;25.40;61.20
22194;DHT22;11262;50.308;9.270;2022-09-02T12:30:07;25.50;61.60
22194;DHT22;11262;50.308;9.270;2022-09-02T12:35:50;26.50;60.00
22194;DHT22;11262;50.308;9.270;2022-09-02T12:38:22;26.60;58.60
22194;DHT22;11262;50.308;9.270;2022-09-02T12:41:18;27.30;59.30
22194;DHT22;11262;50.308;9.270;2022-09-02T12:47:04;27.40;55.90
22194;DHT22;11262;50.308;9.270;2022-09-02T12:49:42;27.30;55.10
22194;DHT22;11262;50.308;9.270;2022-09-02T12:52:13;27.00;55.10
22194;DHT22;11262;50.308;9.270;2022-09-02T12:54:56;26.70;54.60
22194;DHT22;11262;50.308;9.270;2022-09-02T12:57:38;26.50;56.30
22194;DHT22;11262;50.308;9.270;2022-09-02T13:00:05;27.10;56.10
22194;DHT22;11262;50.308;9.270;2022-09-02T13:02:47;27.00;56.50
22194;DHT22;11262;50.308;9.270;2022-09-02T13:33:40;28.20;52.00
22194;DHT22;11262;50.308;9.270;2022-09-02T13:36:06;28.10;52.00
22194;DHT22;11262;50.308;9.270;2022-09-02T13:38:32;28.10;51.60
22194;DHT22;11262;50.308;9.270;2022-09-02T13:40:57;28.40;50.90
22194;DHT22;11262;50.308;9.270;2022-09-02T13:43:25;28.70;51.00
22194;DHT22;11262;50.308;9.270;2022-09-02T13:45:52;29.00;50.50
22194;DHT22;11262;50.308;9.270;2022-09-02T13:48:22;28.80;50.00
22194;DHT22;11262;50.308;9.270;2022-09-02T13:50:52;28.90;50.60
22194;DHT22;11262;50.308;9.270;2022-09-02T13:53:33;29.10;50.50
22194;DHT22;11262;50.308;9.270;2022-09-02T13:56:00;29.40;50.00
22194;DHT22;11262;50.308;9.270;2022-09-02T14:00:56;29.30;49.70
22194;DHT22;11262;50.308;9.270;2022-09-02T14:03:22;29.40;49.40
22194;DHT22;11262;50.308;9.270;2022-09-02T14:05:51;29.60;49.90
22194;DHT22;11262;50.308;9.270;2022-09-02T14:08:25;29.70;49.20
22194;DHT22;11262;50.308;9.270;2022-09-02T14:10:54;29.90;48.70
22194;DHT22;11262;50.308;9.270;2022-09-02T14:13:21;29.90;48.50
22194;DHT22;11262;50.308;9.270;2022-09-02T14:15:47;30.00;48.50
22194;DHT22;11262;50.308;9.270;2022-09-02T14:18:15;29.80;47.90
22194;DHT22;11262;50.308;9.270;2022-09-02T14:20:59;29.80;47.80
22194;DHT22;11262;50.308;9.270;2022-09-02T14:23:27;29.70;47.90
22194;DHT22;11262;50.308;9.270;2022-09-02T14:25:58;29.60;48.40
22194;DHT22;11262;50.308;9.270;2022-09-02T14:28:27;29.60;48.80
22194;DHT22;11262;50.308;9.270;2022-09-02T14:31:23;29.90;49.40
22194;DHT22;11262;50.308;9.270;2022-09-02T14:33:49;30.10;47.90
22194;DHT22;11262;50.308;9.270;2022-09-02T14:38:52;30.10;47.60
22194;DHT22;11262;50.308;9.270;2022-09-02T14:41:29;30.30;47.60
22194;DHT22;11262;50.308;9.270;2022-09-02T14:43:59;30.20;46.90
22194;DHT22;11262;50.308;9.270;2022-09-02T14:46:35;30.10;46.20
22194;DHT22;11262;50.308;9.270;2022-09-02T14:49:07;30.20;46.10
22194;DHT22;11262;50.308;9.270;2022-09-02T14:51:45;29.90;46.10
22194;DHT22;11262;50.308;9.270;2022-09-02T14:54:11;29.90;45.90
22194;DHT22;11262;50.308;9.270;2022-09-02T14:56:57;30.10;46.10
22194;DHT22;11262;50.308;9.270;2022-09-02T14:59:22;30.50;46.00
22194;DHT22;11262;50.308;9.270;2022-09-02T15:01:49;30.80;45.60
22194;DHT22;11262;50.308;9.270;2022-09-02T15:04:16;30.50;45.40
22194;DHT22;11262;50.308;9.270;2022-09-02T15:06:43;30.00;45.30
22194;DHT22;11262;50.308;9.270;2022-09-02T15:09:09;30.40;45.90
22194;DHT22;11262;50.308;9.270;2022-09-02T15:11:37;30.30;44.80
22194;DHT22;11262;50.308;9.270;2022-09-02T15:14:04;30.50;45.50
22194;DHT22;11262;50.308;9.270;2022-09-02T15:16:29;30.80;45.00
22194;DHT22;11262;50.308;9.270;2022-09-02T15:18:55;31.30;44.40
22194;DHT22;11262;50.308;9.270;2022-09-02T15:21:21;31.60;44.00
22194;DHT22;11262;50.308;9.270;2022-09-02T15:23:46;31.20;43.90
22194;DHT22;11262;50.308;9.270;2022-09-02T15:26:14;31.70;43.80
22194;DHT22;11262;50.308;9.270;2022-09-02T15:28:40;32.50;43.30
22194;DHT22;11262;50.308;9.270;2022-09-02T15:31:06;32.80;42.40
22194;DHT22;11262;50.308;9.270;2022-09-02T15:33:32;33.40;42.10
22194;DHT22;11262;50.308;9.270;2022-09-02T15:36:11;34.10;41.60
22194;DHT22;11262;50.308;9.270;2022-09-02T15:41:21;34.20;41.30
22194;DHT22;11262;50.308;9.270;2022-09-02T15:43:47;34.20;41.50
22194;DHT22;11262;50.308;9.270;2022-09-02T15:48:49;34.80;41.10
22194;DHT22;11262;50.308;9.270;2022-09-02T15:51:17;35.10;40.20
22194;DHT22;11262;50.308;9.270;2022-09-02T15:53:43;35.30;39.90
22194;DHT22;11262;50.308;9.270;2022-09-02T15:56:20;35.00;39.50
22194;DHT22;11262;50.308;9.270;2022-09-02T15:58:46;34.80;39.20
22194;DHT22;11262;50.308;9.270;2022-09-02T16:01:12;34.60;39.40
22194;DHT22;11262;50.308;9.270;2022-09-02T16:03:38;34.90;38.90
22194;DHT22;11262;50.308;9.270;2022-09-02T16:06:05;35.10;38.90
22194;DHT22;11262;50.308;9.270;2022-09-02T16:08:33;35.30;38.80
22194;DHT22;11262;50.308;9.270;2022-09-02T16:11:03;35.60;39.00
22194;DHT22;11262;50.308;9.270;2022-09-02T16:13:29;35.60;38.70
22194;DHT22;11262;50.308;9.270;2022-09-02T16:16:03;35.20;38.50
22194;DHT22;11262;50.308;9.270;2022-09-02T16:18:29;35.30;38.60
22194;DHT22;11262;50.308;9.270;2022-09-02T16:20:54;34.80;39.00
22194;DHT22;11262;50.308;9.270;2022-09-02T16:23:20;33.70;38.70
22194;DHT22;11262;50.308;9.270;2022-09-02T16:25:46;33.90;40.20
22194;DHT22;11262;50.308;9.270;2022-09-02T16:28:11;32.90;39.80
22194;DHT22;11262;50.308;9.270;2022-09-02T16:30:39;32.00;40.90
22194;DHT22;11262;50.308;9.270;2022-09-02T16:33:05;30.90;41.60
22194;DHT22;11262;50.308;9.270;2022-09-02T16:35:30;29.80;43.00
22194;DHT22;11262;50.308;9.270;2022-09-02T16:37:56;29.00;44.20
22194;DHT22;11262;50.308;9.270;2022-09-02T16:40:22;28.40;44.50
22194;DHT22;11262;50.308;9.270;2022-09-02T16:42:48;27.80;45.40
22194;DHT22;11262;50.308;9.270;2022-09-02T16:45:14;27.20;46.30
22194;DHT22;11262;50.308;9.270;2022-09-02T16:47:40;26.90;46.70
22194;DHT22;11262;50.308;9.270;2022-09-02T16:50:05;26.60;47.30
22194;DHT22;11262;50.308;9.270;2022-09-02T16:52:31;26.30;47.60
22194;DHT22;11262;50.308;9.270;2022-09-02T16:54:59;26.10;48.10
22194;DHT22;11262;50.308;9.270;2022-09-02T16:57:25;25.70;48.60
22194;DHT22;11262;50.308;9.270;2022-09-02T16:59:50;25.50;49.20
22194;DHT22;11262;50.308;9.270;2022-09-02T17:02:16;25.20;49.60
22194;DHT22;11262;50.308;9.270;2022-09-02T17:04:42;25.00;50.00
22194;DHT22;11262;50.308;9.270;2022-09-02T17:07:07;24.70;50.50
22194;DHT22;11262;50.308;9.270;2022-09-02T17:09:34;24.60;51.10
22194;DHT22;11262;50.308;9.270;2022-09-02T17:11:59;24.20;51.50
22194;DHT22;11262;50.308;9.270;2022-09-02T17:14:25;24.00;52.00
22194;DHT22;11262;50.308;9.270;2022-09-02T17:16:50;23.90;52.50
22194;DHT22;11262;50.308;9.270;2022-09-02T17:19:18;23.80;52.80
22194;DHT22;11262;50.308;9.270;2022-09-02T17:21:49;23.90;53.00
22194;DHT22;11262;50.308;9.270;2022-09-02T17:24:19;23.90;53.00
22194;DHT22;11262;50.308;9.270;2022-09-02T17:26:48;23.70;53.00
22194;DHT22;11262;50.308;9.270;2022-09-02T17:29:17;23.60;53.40
22194;DHT22;11262;50.308;9.270;2022-09-02T17:31:44;23.40;53.50
22194;DHT22;11262;50.308;9.270;2022-09-02T17:34:10;23.30;53.80
22194;DHT22;11262;50.308;9.270;2022-09-02T17:36:38;23.30;54.20
22194;DHT22;11262;50.308;9.270;2022-09-02T17:39:09;23.30;54.40
22194;DHT22;11262;50.308;9.270;2022-09-02T17:41:35;23.10;54.50
22194;DHT22;11262;50.308;9.270;2022-09-02T17:44:21;23.00;54.80
22194;DHT22;11262;50.308;9.270;2022-09-02T17:46:48;22.80;55.00
22194;DHT22;11262;50.308;9.270;2022-09-02T17:49:14;22.80;55.40
22194;DHT22;11262;50.308;9.270;2022-09-02T17:51:39;22.80;55.70